Time;durP1;ratioP1;P1;durP2;ratioP2;P2;SDS_P1;SDS_P2;PMS_P1;PMS_P2;Temp;Humidity;BMP_temperature;BMP_pressure;BME280_temperature;BME280_humidity;BME280_pressure;Samples;Min_cycle;Max_cycle;Signal;HPM_P1;HPM_P2
2022/04/12 00:04:43;;;;;;;1.93;0.50;;;10.90;99.90;;;;;;6296619;22;20193;-91
2022/04/12 00:07:19;;;;;;;0.50;0.37;;;10.80;99.90;;;;;;6297943;22;20163;-90
2022/04/12 00:09:50;;;;;;;1.43;0.50;;;10.90;99.90;;;;;;6298286;22;20167;-90
2022/04/12 00:12:24;;;;;;;0.50;0.50;;;11.00;99.90;;;;;;6284985;22;20495;-93
2022/04/12 00:14:59;;;;;;;2.17;0.80;;;11.00;99.90;;;;;;6293442;22;20202;-91
2022/04/12 00:20:21;;;;;;;0.50;0.50;;;10.80;99.90;;;;;;6273949;22;20230;-91
2022/04/12 00:26:36;;;;;;;1.13;0.50;;;10.80;99.90;;;;;;6294076;22;20213;-92
2022/04/12 00:29:07;;;;;;;2.13;0.60;;;10.90;99.90;;;;;;6281309;22;20197;-91
2022/04/12 00:31:39;;;;;;;0.87;0.40;;;10.90;99.90;;;;;;6283919;22;20171;-92
2022/04/12 00:37:05;;;;;;;1.50;0.50;;;10.50;99.90;;;;;;6296171;22;20183;-90
2022/04/12 00:39:40;;;;;;;1.37;0.50;;;10.60;99.90;;;;;;6294629;22;20243;-92
2022/04/12 00:42:15;;;;;;;2.20;0.40;;;10.50;99.90;;;;;;6284866;22;20470;-91
2022/04/12 00:44:47;;;;;;;0.83;0.70;;;10.60;99.90;;;;;;6289854;22;20182;-90
2022/04/12 00:47:18;;;;;;;1.23;0.60;;;10.60;99.90;;;;;;6284013;22;20253;-93
2022/04/12 00:52:51;;;;;;;1.17;0.53;;;10.80;99.90;;;;;;6291207;22;20533;-92
2022/04/12 00:55:23;;;;;;;1.50;0.63;;;10.60;99.90;;;;;;6302595;22;20179;-93
2022/04/12 01:00:55;;;;;;;0.70;0.50;;;10.70;99.90;;;;;;6303317;22;20175;-93
2022/04/12 01:03:28;;;;;;;0.90;0.47;;;10.50;99.90;;;;;;6305131;22;20171;-92
2022/04/12 01:06:01;;;;;;;1.33;0.80;;;10.40;99.90;;;;;;6302630;22;20191;-92
2022/04/12 01:08:35;;;;;;;1.33;0.60;;;10.20;99.90;;;;;;6297439;22;20175;-92
2022/04/12 01:11:07;;;;;;;0.93;0.40;;;10.30;99.90;;;;;;6299286;22;20235;-92
2022/04/12 01:13:41;;;;;;;0.70;0.50;;;10.20;99.90;;;;;;6293895;22;20175;-92
2022/04/12 01:16:13;;;;;;;2.77;0.80;;;10.40;99.90;;;;;;6285504;22;20252;-93
2022/04/12 01:18:44;;;;;;;1.47;0.50;;;10.70;99.90;;;;;;6283828;22;20175;-92
2022/04/12 01:21:18;;;;;;;0.97;0.73;;;10.60;99.90;;;;;;6286155;22;20190;-93
2022/04/12 01:24:03;;;;;;;1.03;0.50;;;10.30;99.90;;;;;;6300016;22;20163;-93
2022/04/12 01:26:35;;;;;;;1.83;0.83;;;10.30;99.90;;;;;;6303489;22;20191;-92
2022/04/12 01:29:08;;;;;;;1.83;0.50;;;10.40;99.90;;;;;;6303118;22;20178;-92
2022/04/12 01:31:41;;;;;;;0.97;0.40;;;10.20;99.90;;;;;;6304688;22;20185;-90
2022/04/12 01:34:24;;;;;;;0.60;0.40;;;9.90;99.90;;;;;;6305228;22;20206;-92
2022/04/12 01:36:55;;;;;;;1.73;0.50;;;9.70;99.90;;;;;;6304086;22;20197;-90
2022/04/12 01:39:28;;;;;;;1.90;0.40;;;9.50;99.90;;;;;;6303766;22;20219;-91
2022/04/12 01:41:59;;;;;;;0.73;0.60;;;9.40;99.90;;;;;;6304365;22;20155;-90
2022/04/12 01:44:31;;;;;;;2.77;0.70;;;8.90;99.90;;;;;;6303653;22;20189;-92
2022/04/12 01:47:02;;;;;;;0.50;0.40;;;8.60;99.90;;;;;;6301750;22;20195;-91
2022/04/12 01:49:33;;;;;;;0.90;0.50;;;8.60;99.90;;;;;;6301304;22;20205;-90
2022/04/12 01:52:05;;;;;;;1.00;0.60;;;8.60;99.90;;;;;;6300931;22;20227;-92
2022/04/12 01:54:44;;;;;;;1.33;0.70;;;8.50;99.90;;;;;;6301068;22;20166;-91
2022/04/12 01:57:16;;;;;;;0.70;0.60;;;8.40;99.90;;;;;;6296813;22;20208;-90
2022/04/12 01:59:55;;;;;;;0.70;0.50;;;8.20;99.90;;;;;;6302698;22;20155;-93
2022/04/12 02:02:31;;;;;;;0.70;0.50;;;8.10;99.90;;;;;;6303449;22;20196;-92
2022/04/12 02:10:55;;;;;;;0.80;0.60;;;7.80;99.90;;;;;;6304591;22;20173;-90
2022/04/12 02:13:26;;;;;;;1.37;0.70;;;7.80;99.90;;;;;;6303514;22;20241;-90
2022/04/12 02:15:59;;;;;;;0.80;0.50;;;7.60;99.90;;;;;;6302276;22;20207;-91
2022/04/12 02:18:34;;;;;;;0.60;0.50;;;7.50;99.90;;;;;;6293214;22;20181;-91
2022/04/12 02:27:02;;;;;;;2.80;0.50;;;7.10;99.90;;;;;;6285384;22;20225;-91
2022/04/12 02:29:37;;;;;;;0.53;0.53;;;7.20;99.90;;;;;;6300764;22;20191;-90
2022/04/12 02:32:09;;;;;;;0.90;0.70;;;7.00;99.90;;;;;;6300662;22;20178;-90
2022/04/12 02:37:26;;;;;;;1.30;0.43;;;7.10;99.90;;;;;;6295908;22;20896;-91
2022/04/12 02:40:02;;;;;;;0.70;0.63;;;7.00;99.90;;;;;;6299432;22;20175;-91
2022/04/12 02:42:38;;;;;;;0.90;0.60;;;7.10;99.90;;;;;;6299700;22;20176;-91
2022/04/12 02:45:12;;;;;;;0.80;0.47;;;7.00;99.90;;;;;;6297736;22;20185;-92
2022/04/12 02:47:45;;;;;;;0.80;0.53;;;7.00;99.90;;;;;;6295883;22;20211;-91
2022/04/12 02:50:19;;;;;;;0.87;0.60;;;6.90;99.90;;;;;;6295596;22;20177;-91
2022/04/12 02:52:52;;;;;;;0.60;0.50;;;6.90;99.90;;;;;;6295801;22;20233;-90
2022/04/12 02:55:24;;;;;;;0.50;0.40;;;6.80;99.90;;;;;;6295120;22;20182;-91
2022/04/12 02:58:17;;;;;;;1.23;0.60;;;6.60;99.90;;;;;;6294138;22;20183;-91
2022/04/12 03:00:49;;;;;;;1.10;0.70;;;6.60;99.90;;;;;;6291748;22;20206;-91
2022/04/12 03:03:21;;;;;;;1.03;0.70;;;6.50;99.90;;;;;;6295705;22;20242;-91
2022/04/12 03:08:37;;;;;;;0.77;0.77;;;6.30;99.90;;;;;;6296882;22;20185;-91
2022/04/12 03:14:01;;;;;;;1.13;0.70;;;6.20;99.90;;;;;;6296653;22;20175;-91
2022/04/12 03:19:18;;;;;;;1.13;0.70;;;6.10;99.90;;;;;;6292127;22;20249;-91
2022/04/12 03:21:52;;;;;;;1.10;0.90;;;6.00;99.90;;;;;;6298634;22;20190;-90
2022/04/12 03:27:24;;;;;;;2.67;0.90;;;6.00;99.90;;;;;;6298069;22;20209;-92
2022/04/12 03:30:02;;;;;;;1.43;0.60;;;5.90;99.90;;;;;;6258680;22;20193;-90
2022/04/12 03:32:33;;;;;;;2.03;0.60;;;5.80;99.90;;;;;;6273273;22;20159;-88
2022/04/12 03:35:06;;;;;;;1.77;0.70;;;5.80;99.90;;;;;;6269524;22;20202;-91
2022/04/12 03:37:39;;;;;;;1.00;0.60;;;5.80;99.90;;;;;;6256005;22;20179;-90
2022/04/12 03:40:13;;;;;;;1.33;0.60;;;5.80;99.90;;;;;;6254972;22;20187;-91
2022/04/12 03:42:45;;;;;;;1.27;0.50;;;5.90;99.90;;;;;;6253094;22;20187;-92
2022/04/12 03:45:19;;;;;;;1.67;0.60;;;5.90;99.90;;;;;;6253271;22;20172;-90
2022/04/12 03:47:52;;;;;;;0.90;0.60;;;6.00;99.90;;;;;;6264653;22;20207;-92
2022/04/12 03:53:27;;;;;;;1.10;0.60;;;6.00;99.90;;;;;;6265937;22;20180;-90
2022/04/12 03:58:57;;;;;;;0.73;0.60;;;6.10;99.90;;;;;;6266743;22;20175;-91
2022/04/12 04:02:08;;;;;;;1.17;0.70;;;6.10;99.90;;;;;;6266158;23;20175;-92
2022/04/12 04:04:54;;;;;;;0.90;0.60;;;6.10;99.90;;;;;;6266912;22;20186;-92
2022/04/12 04:10:40;;;;;;;0.73;0.60;;;6.10;99.90;;;;;;6270843;23;20195;-92
2022/04/12 04:13:14;;;;;;;1.23;0.50;;;6.10;99.90;;;;;;6271371;22;20168;-88
2022/04/12 04:15:48;;;;;;;0.80;0.77;;;6.10;99.90;;;;;;6271479;22;20226;-91
2022/04/12 04:21:08;;;;;;;0.77;0.67;;;6.10;99.90;;;;;;6297525;22;20206;-90
2022/04/12 04:23:45;;;;;;;1.30;0.70;;;6.10;99.90;;;;;;6296735;22;20171;-90
2022/04/12 04:26:16;;;;;;;0.83;0.70;;;6.10;99.90;;;;;;6298721;22;20166;-92
2022/04/12 04:29:01;;;;;;;2.23;1.00;;;6.10;99.90;;;;;;6299869;22;20229;-92
2022/04/12 04:34:36;;;;;;;3.80;0.90;;;6.10;99.90;;;;;;6297277;22;20182;-91
2022/04/12 04:37:44;;;;;;;3.77;0.90;;;6.00;99.90;;;;;;6299375;22;20193;-92
2022/04/12 04:43:14;;;;;;;1.00;0.70;;;6.00;99.90;;;;;;6294174;22;20175;-92
2022/04/12 04:45:46;;;;;;;1.00;0.90;;;6.00;99.90;;;;;;6286032;22;20167;-91
2022/04/12 04:48:18;;;;;;;0.93;0.83;;;5.90;99.90;;;;;;6293261;22;20206;-90
2022/04/12 04:50:49;;;;;;;1.37;0.93;;;5.90;99.90;;;;;;6296655;22;20231;-91
2022/04/12 04:53:25;;;;;;;1.50;0.83;;;5.90;99.90;;;;;;6294114;22;20182;-91
2022/04/12 04:55:58;;;;;;;1.70;0.80;;;5.90;99.90;;;;;;6294617;22;20229;-90
2022/04/12 05:01:16;;;;;;;0.90;0.63;;;5.80;99.90;;;;;;6299787;22;20186;-91
2022/04/12 05:03:50;;;;;;;0.63;0.63;;;5.80;99.90;;;;;;6298320;22;20179;-91
2022/04/12 05:06:26;;;;;;;1.73;0.90;;;5.80;99.90;;;;;;6297488;22;20174;-91
2022/04/12 05:09:07;;;;;;;1.40;0.90;;;5.70;99.90;;;;;;6296663;22;20229;-92
2022/04/12 05:11:55;;;;;;;1.57;1.07;;;5.70;99.90;;;;;;6296577;22;20177;-92
2022/04/12 05:17:27;;;;;;;1.03;0.80;;;5.60;99.90;;;;;;6295863;22;20172;-91
2022/04/12 05:20:02;;;;;;;1.63;1.00;;;5.60;99.90;;;;;;6298201;22;20187;-93
2022/04/12 05:22:51;;;;;;;1.20;0.80;;;5.60;99.90;;;;;;6298452;22;20277;-92
2022/04/12 05:25:27;;;;;;;1.30;1.07;;;5.50;99.90;;;;;;6290404;22;20194;-91
2022/04/12 05:28:08;;;;;;;0.83;0.80;;;5.50;99.90;;;;;;6291780;22;20190;-92
2022/04/12 05:30:47;;;;;;;1.40;1.07;;;5.40;99.90;;;;;;6304396;22;20213;-93
2022/04/12 05:36:06;;;;;;;1.10;0.93;;;5.40;99.90;;;;;;6301826;22;20205;-92
2022/04/12 05:38:52;;;;;;;1.50;0.87;;;5.30;99.90;;;;;;6296994;22;20175;-91
2022/04/12 05:42:00;;;;;;;1.10;1.00;;;5.40;99.90;;;;;;6299100;22;20198;-89
2022/04/12 05:44:44;;;;;;;1.30;0.90;;;5.30;99.90;;;;;;6299652;22;20171;-91
2022/04/12 05:47:17;;;;;;;1.00;0.80;;;5.20;99.90;;;;;;6297677;22;20205;-92
2022/04/12 05:49:49;;;;;;;1.10;0.70;;;5.20;99.90;;;;;;6302405;22;20151;-91
2022/04/12 05:52:21;;;;;;;1.73;0.73;;;5.20;99.90;;;;;;6299314;22;20201;-91
2022/04/12 05:54:53;;;;;;;1.03;0.80;;;5.20;99.90;;;;;;6299055;22;20163;-91
2022/04/12 05:57:26;;;;;;;1.73;0.80;;;5.10;99.90;;;;;;6296605;22;20183;-91
2022/04/12 05:59:58;;;;;;;1.33;0.90;;;5.10;99.90;;;;;;6296020;22;20227;-90
2022/04/12 06:02:49;;;;;;;2.10;0.83;;;5.10;99.90;;;;;;6296108;22;20165;-91
2022/04/12 06:05:28;;;;;;;0.83;0.77;;;5.10;99.90;;;;;;6298361;22;20159;-91
2022/04/12 06:08:00;;;;;;;0.90;0.70;;;5.00;99.90;;;;;;6295232;22;20256;-91
2022/04/12 06:10:33;;;;;;;0.70;0.50;;;5.00;99.90;;;;;;6297673;22;20186;-90
2022/04/12 06:13:20;;;;;;;1.63;0.67;;;5.00;99.90;;;;;;6298944;22;20174;-92
2022/04/12 06:15:53;;;;;;;0.70;0.60;;;5.00;99.90;;;;;;6302451;22;20193;-91
2022/04/12 06:21:17;;;;;;;0.70;0.60;;;5.00;99.90;;;;;;6296959;22;20194;-90
2022/04/12 06:23:48;;;;;;;1.83;0.83;;;5.00;99.90;;;;;;6297107;22;20458;-91
2022/04/12 06:26:21;;;;;;;1.70;0.70;;;5.00;99.90;;;;;;6287246;22;20175;-91
2022/04/12 06:28:56;;;;;;;1.73;0.50;;;4.90;99.90;;;;;;6294619;22;20190;-91
2022/04/12 06:31:30;;;;;;;2.47;1.00;;;4.90;99.90;;;;;;6287817;22;20189;-93
2022/04/12 06:34:02;;;;;;;2.97;0.70;;;4.90;99.90;;;;;;6286112;22;20198;-90
2022/04/12 06:36:34;;;;;;;1.97;1.00;;;4.90;99.90;;;;;;6285015;22;20174;-92
2022/04/12 06:39:14;;;;;;;1.57;0.87;;;4.90;99.90;;;;;;6281733;22;20201;-91
2022/04/12 06:41:45;;;;;;;5.83;1.07;;;4.90;99.90;;;;;;6284970;22;20175;-91
2022/04/12 06:44:23;;;;;;;2.23;0.80;;;4.90;99.90;;;;;;6282856;22;20229;-92
2022/04/12 06:46:56;;;;;;;2.53;0.90;;;4.80;99.90;;;;;;6285632;22;20178;-90
2022/04/12 06:49:35;;;;;;;2.63;1.00;;;4.80;99.90;;;;;;6297337;22;20202;-90
2022/04/12 06:52:11;;;;;;;2.30;1.00;;;4.80;99.90;;;;;;6296718;22;20175;-89
2022/04/12 06:54:45;;;;;;;5.07;0.90;;;4.80;99.90;;;;;;6294462;22;20213;-90
2022/04/12 06:57:19;;;;;;;2.67;0.80;;;4.80;99.90;;;;;;6293099;22;20179;-91
2022/04/12 07:00:09;;;;;;;4.17;0.73;;;4.70;99.90;;;;;;6296127;22;20197;-92
2022/04/12 07:02:49;;;;;;;1.50;0.80;;;4.70;99.90;;;;;;6293458;22;20590;-94
2022/04/12 07:05:30;;;;;;;1.90;0.87;;;4.70;99.90;;;;;;6298491;22;20175;-91
2022/04/12 07:08:02;;;;;;;4.17;1.00;;;4.70;99.90;;;;;;6300954;22;20159;-92
2022/04/12 07:10:35;;;;;;;2.37;1.10;;;4.70;99.90;;;;;;6302809;22;20163;-93
2022/04/12 07:13:08;;;;;;;3.13;0.90;;;4.70;99.90;;;;;;6299574;22;20206;-92
2022/04/12 07:15:43;;;;;;;3.43;0.80;;;4.70;99.90;;;;;;6303467;22;20166;-93
2022/04/12 07:18:18;;;;;;;2.80;0.80;;;4.60;99.90;;;;;;6297527;22;20224;-92
2022/04/12 07:20:50;;;;;;;2.00;1.10;;;4.60;99.90;;;;;;6296281;22;20186;-92
2022/04/12 07:23:23;;;;;;;0.83;0.50;;;4.60;99.90;;;;;;6296012;22;20171;-91
2022/04/12 07:26:04;;;;;;;2.07;1.10;;;4.60;99.90;;;;;;6299414;22;20167;-91
2022/04/12 07:28:35;;;;;;;3.57;0.90;;;4.60;99.90;;;;;;6299232;22;20191;-92
2022/04/12 07:31:26;;;;;;;4.83;1.20;;;4.60;99.90;;;;;;6303813;22;20175;-92
2022/04/12 07:33:59;;;;;;;5.10;1.10;;;4.50;99.90;;;;;;6302468;22;20601;-93
2022/04/12 07:36:36;;;;;;;2.07;1.20;;;4.50;99.90;;;;;;6303332;22;20170;-91
2022/04/12 07:39:12;;;;;;;2.97;0.90;;;4.50;99.90;;;;;;6292817;22;20174;-93
2022/04/12 07:41:55;;;;;;;2.67;0.80;;;4.50;99.90;;;;;;6301842;22;20232;-93
2022/04/12 07:44:37;;;;;;;2.57;0.60;;;4.50;99.90;;;;;;6272549;22;20163;-94
2022/04/12 07:47:12;;;;;;;1.90;0.90;;;4.50;99.90;;;;;;6296176;22;20178;-93
2022/04/12 07:49:44;;;;;;;2.30;1.10;;;4.50;99.90;;;;;;6298177;22;20186;-92
2022/04/12 07:52:18;;;;;;;2.47;1.10;;;4.50;99.90;;;;;;6270455;22;20186;-93
2022/04/12 07:54:49;;;;;;;3.83;1.10;;;4.50;99.90;;;;;;6265633;22;20175;-93
2022/04/12 07:57:23;;;;;;;3.10;2.20;;;4.50;99.90;;;;;;6292253;22;20182;-91
2022/04/12 08:00:09;;;;;;;3.00;1.00;;;4.50;99.90;;;;;;6292906;22;20228;-92
2022/04/12 08:05:28;;;;;;;7.13;1.40;;;4.50;99.90;;;;;;6294884;22;20205;-92
2022/04/12 08:08:04;;;;;;;3.50;1.13;;;4.50;99.90;;;;;;6288584;22;20175;-91
2022/04/12 08:10:37;;;;;;;3.80;1.17;;;4.50;99.90;;;;;;6296179;22;20202;-91
2022/04/12 08:15:55;;;;;;;5.47;3.00;;;4.60;99.90;;;;;;6301677;22;20642;-91
2022/04/12 08:18:52;;;;;;;3.47;1.33;;;4.60;99.90;;;;;;6276059;22;20209;-92
2022/04/12 08:21:38;;;;;;;3.17;1.10;;;4.60;99.90;;;;;;6301923;22;20194;-91
2022/04/12 08:24:11;;;;;;;6.60;1.73;;;4.60;99.90;;;;;;6300453;22;20213;-93
2022/04/12 08:26:45;;;;;;;3.73;1.10;;;4.60;99.90;;;;;;6300651;22;20183;-93
2022/04/12 08:29:18;;;;;;;3.93;1.10;;;4.60;99.90;;;;;;6294726;22;20210;-92
2022/04/12 08:31:52;;;;;;;3.27;1.47;;;4.60;99.90;;;;;;6295597;22;20175;-93
2022/04/12 08:34:30;;;;;;;3.33;1.13;;;4.60;99.90;;;;;;6295130;22;20259;-94
2022/04/12 08:39:49;;;;;;;7.20;1.33;;;4.60;99.90;;;;;;6298898;22;20205;-92
2022/04/12 08:42:30;;;;;;;5.27;1.50;;;4.60;99.90;;;;;;6291312;22;20176;-93
2022/04/12 08:47:50;;;;;;;3.77;1.53;;;4.50;99.90;;;;;;6289523;22;20186;-94
2022/04/12 08:50:40;;;;;;;7.30;1.47;;;4.60;99.90;;;;;;6292990;22;20199;-92
2022/04/12 08:53:15;;;;;;;11.70;1.73;;;4.60;99.90;;;;;;6292895;22;20676;-93
2022/04/12 08:55:47;;;;;;;4.20;2.17;;;4.50;99.90;;;;;;6285040;22;20270;-93
2022/04/12 09:01:07;;;;;;;3.97;2.93;;;4.50;99.90;;;;;;6287960;22;20238;-90
2022/04/12 09:03:44;;;;;;;9.60;1.60;;;4.50;99.90;;;;;;6296080;22;20175;-92
2022/04/12 09:06:20;;;;;;;8.90;2.50;;;4.50;99.90;;;;;;6294181;22;20178;-94
2022/04/12 09:11:37;;;;;;;8.17;1.43;;;4.50;99.90;;;;;;6293745;22;20182;-92
2022/04/12 09:14:18;;;;;;;4.90;1.80;;;4.40;99.90;;;;;;6292635;22;20167;-92
2022/04/12 09:16:51;;;;;;;9.50;1.20;;;4.40;99.90;;;;;;6294073;22;20167;-91
2022/04/12 09:19:51;;;;;;;9.80;3.10;;;4.40;99.90;;;;;;6282322;22;20177;-92
2022/04/12 09:22:25;;;;;;;7.63;1.57;;;4.30;99.90;;;;;;6283458;22;20175;-92
2022/04/12 09:25:00;;;;;;;5.17;1.40;;;4.30;99.90;;;;;;6293569;22;20186;-91
2022/04/12 09:27:33;;;;;;;7.50;1.43;;;4.30;99.90;;;;;;6296379;22;20175;-91
2022/04/12 09:30:11;;;;;;;5.17;1.50;;;4.30;99.90;;;;;;6301261;22;20210;-90
2022/04/12 09:32:52;;;;;;;6.77;2.00;;;4.20;99.90;;;;;;6277437;22;20233;-93
2022/04/12 09:35:25;;;;;;;5.53;1.50;;;4.20;99.90;;;;;;6288633;22;20171;-93
2022/04/12 09:37:59;;;;;;;6.67;1.87;;;4.20;99.90;;;;;;6285582;22;20201;-93
2022/04/12 09:40:30;;;;;;;11.83;2.03;;;4.20;99.90;;;;;;6283502;22;20192;-93
2022/04/12 09:43:05;;;;;;;10.40;4.03;;;4.20;99.90;;;;;;6283140;22;20190;-92
2022/04/12 09:45:37;;;;;;;12.93;2.20;;;4.20;99.90;;;;;;6283037;22;20605;-94
2022/04/12 09:48:15;;;;;;;8.60;2.13;;;4.30;99.90;;;;;;6284364;22;20175;-92
2022/04/12 09:51:09;;;;;;;6.73;3.73;;;4.30;99.90;;;;;;6282957;22;20238;-92
2022/04/12 09:53:45;;;;;;;9.73;1.97;;;4.30;99.90;;;;;;6283010;22;20262;-92
2022/04/12 09:56:19;;;;;;;7.40;1.60;;;4.40;99.90;;;;;;6259292;22;20171;-92
2022/04/12 09:58:52;;;;;;;10.83;2.07;;;4.30;99.90;;;;;;6281592;22;20254;-92
2022/04/12 10:01:25;;;;;;;9.37;1.70;;;4.30;99.90;;;;;;6282076;22;20182;-93
2022/04/12 10:03:59;;;;;;;7.07;1.53;;;4.30;99.90;;;;;;6282191;22;20178;-92
2022/04/12 10:06:31;;;;;;;7.67;1.57;;;4.30;99.90;;;;;;6256395;22;20187;-94
2022/04/12 10:09:07;;;;;;;9.00;2.13;;;4.40;99.90;;;;;;6255482;22;20225;-93
2022/04/12 10:11:41;;;;;;;8.17;1.60;;;4.40;99.90;;;;;;6255853;22;20203;-92
2022/04/12 10:14:13;;;;;;;12.03;2.23;;;4.40;99.90;;;;;;6281447;22;20183;-92
2022/04/12 10:16:45;;;;;;;6.53;1.60;;;4.40;99.90;;;;;;6281344;22;20210;-91
2022/04/12 10:19:19;;;;;;;13.13;2.00;;;4.40;99.90;;;;;;6279866;22;20507;-94
2022/04/12 10:21:50;;;;;;;7.10;2.23;;;4.40;99.90;;;;;;6281368;22;20186;-92
2022/04/12 10:24:27;;;;;;;9.10;2.20;;;4.40;99.90;;;;;;6281913;22;20191;-94
2022/04/12 10:26:59;;;;;;;7.73;2.93;;;4.40;99.90;;;;;;6281485;22;20175;-92
2022/04/12 10:29:30;;;;;;;25.33;4.10;;;4.40;99.90;;;;;;6280381;22;20229;-92
2022/04/12 10:32:03;;;;;;;9.63;2.00;;;4.40;99.90;;;;;;6282440;22;20174;-93
2022/04/12 10:35:01;;;;;;;11.63;1.90;;;4.50;99.90;;;;;;6286076;22;20287;-90
2022/04/12 10:37:35;;;;;;;7.13;1.73;;;4.50;99.90;;;;;;6254174;22;20493;-92
2022/04/12 10:40:30;;;;;;;8.27;2.73;;;4.50;99.90;;;;;;6281945;22;20298;-92
2022/04/12 10:43:05;;;;;;;10.63;1.80;;;4.50;99.90;;;;;;6285822;22;20244;-91
2022/04/12 10:45:37;;;;;;;6.30;1.47;;;4.50;99.90;;;;;;6282490;22;20530;-92
2022/04/12 10:48:08;;;;;;;10.70;2.00;;;4.60;99.90;;;;;;6280804;22;20239;-94
2022/04/12 10:50:44;;;;;;;8.93;2.00;;;4.50;99.90;;;;;;6282422;22;20175;-93
2022/04/12 10:53:16;;;;;;;10.47;3.10;;;4.50;99.90;;;;;;6282146;22;20690;-95
2022/04/12 10:55:51;;;;;;;11.50;1.87;;;4.60;99.90;;;;;;6281881;22;20245;-92
2022/04/12 10:58:32;;;;;;;16.10;9.93;;;4.60;99.90;;;;;;6280690;22;20202;-93
2022/04/12 11:01:04;;;;;;;13.43;6.13;;;4.60;99.90;;;;;;6282585;22;20195;-92
2022/04/12 11:03:58;;;;;;;19.83;2.40;;;4.60;99.90;;;;;;6283183;22;20572;-93
2022/04/12 11:06:32;;;;;;;9.90;1.70;;;4.60;99.90;;;;;;6282244;22;20178;-92
2022/04/12 11:09:16;;;;;;;10.60;2.10;;;4.60;99.90;;;;;;6283104;22;20179;-92
2022/04/12 11:11:58;;;;;;;8.00;1.70;;;4.60;99.90;;;;;;6282201;22;20605;-91
2022/04/12 11:14:32;;;;;;;8.47;1.80;;;4.60;99.90;;;;;;6283584;22;20481;-91
2022/04/12 11:17:05;;;;;;;26.97;8.53;;;4.60;99.90;;;;;;6282077;22;20175;-91
2022/04/12 11:19:44;;;;;;;8.57;1.83;;;4.50;99.90;;;;;;6258546;22;20197;-92
2022/04/12 11:22:17;;;;;;;5.43;1.80;;;4.50;99.90;;;;;;6287826;22;20195;-92
2022/04/12 11:25:22;;;;;;;9.07;2.63;;;4.40;99.90;;;;;;6283400;22;20614;-93
2022/04/12 11:28:08;;;;;;;13.27;2.77;;;4.40;99.90;;;;;;6297364;22;20183;-92
2022/04/12 11:30:39;;;;;;;10.97;2.90;;;4.30;99.90;;;;;;6296450;22;20194;-92
2022/04/12 11:33:11;;;;;;;8.20;1.80;;;4.30;99.90;;;;;;6261285;22;20175;-92
2022/04/12 11:35:44;;;;;;;9.23;2.40;;;4.20;99.90;;;;;;6284758;22;20221;-93
2022/04/12 11:38:16;;;;;;;10.23;2.37;;;4.20;99.90;;;;;;6284913;22;20171;-92
2022/04/12 11:40:48;;;;;;;15.70;2.23;;;4.20;99.90;;;;;;6294216;22;20206;-93
2022/04/12 11:43:28;;;;;;;10.20;2.20;;;4.10;99.90;;;;;;6293896;22;20180;-92
2022/04/12 11:46:01;;;;;;;6.53;1.90;;;4.10;99.90;;;;;;6288142;22;20175;-93
2022/04/12 11:48:34;;;;;;;13.20;2.37;;;4.10;99.90;;;;;;6268804;22;20179;-94
2022/04/12 11:51:08;;;;;;;9.23;2.33;;;4.00;99.90;;;;;;6302146;22;20178;-92
2022/04/12 11:53:49;;;;;;;10.93;2.47;;;4.00;99.90;;;;;;6300601;22;20204;-93
2022/04/12 11:56:21;;;;;;;10.20;2.30;;;4.00;99.90;;;;;;6293991;22;20160;-92
2022/04/12 11:58:56;;;;;;;13.97;2.00;;;4.00;99.90;;;;;;6284508;22;20171;-92
2022/04/12 12:01:34;;;;;;;12.10;1.70;;;4.00;99.90;;;;;;6256425;22;20191;-94
2022/04/12 12:04:15;;;;;;;10.20;2.53;;;3.90;99.90;;;;;;6282323;22;20230;-94
2022/04/12 12:07:00;;;;;;;14.80;3.93;;;4.00;99.90;;;;;;6283660;22;20182;-92
2022/04/12 12:09:34;;;;;;;10.83;2.00;;;3.90;99.90;;;;;;6281261;22;20171;-94
2022/04/12 12:12:09;;;;;;;7.53;2.50;;;3.90;99.90;;;;;;6281175;22;20175;-91
2022/04/12 12:14:44;;;;;;;7.10;2.00;;;3.90;99.90;;;;;;6282030;22;20181;-92
2022/04/12 12:17:20;;;;;;;8.20;1.90;;;3.90;99.90;;;;;;6285348;22;20167;-93
2022/04/12 12:19:52;;;;;;;8.53;1.67;;;3.90;99.90;;;;;;6301637;22;20175;-93
2022/04/12 12:22:27;;;;;;;10.23;2.57;;;3.80;99.90;;;;;;6289602;22;20325;-93
2022/04/12 12:24:59;;;;;;;8.40;3.60;;;3.80;99.90;;;;;;6288576;22;20179;-93
2022/04/12 12:27:32;;;;;;;9.73;1.87;;;3.70;99.90;;;;;;6287039;22;20179;-94
2022/04/12 12:30:09;;;;;;;9.33;3.60;;;3.70;99.90;;;;;;6281076;22;20175;-91
2022/04/12 12:32:42;;;;;;;12.33;3.97;;;3.70;99.90;;;;;;6283194;22;20625;-93
2022/04/12 12:35:16;;;;;;;6.97;1.60;;;3.70;99.90;;;;;;6282888;22;20175;-94
2022/04/12 12:37:48;;;;;;;8.60;2.00;;;3.70;99.90;;;;;;6284661;22;20171;-93
2022/04/12 12:40:22;;;;;;;13.37;2.20;;;3.60;99.90;;;;;;6284016;22;20581;-93
2022/04/12 12:42:55;;;;;;;10.00;1.97;;;3.60;99.90;;;;;;6286654;22;20202;-93
2022/04/12 12:45:28;;;;;;;6.70;1.67;;;3.60;99.90;;;;;;6283919;22;20186;-94
2022/04/12 12:48:00;;;;;;;8.80;1.63;;;3.50;99.90;;;;;;6282693;22;20699;-92
2022/04/12 12:50:32;;;;;;;6.83;1.97;;;3.50;99.90;;;;;;6284569;22;20178;-95
2022/04/12 12:53:05;;;;;;;7.77;2.07;;;3.50;99.90;;;;;;6283871;22;20175;-92
2022/04/12 12:55:42;;;;;;;8.70;2.00;;;3.60;99.90;;;;;;6284886;22;20170;-94
2022/04/12 12:58:16;;;;;;;8.97;1.80;;;3.50;99.90;;;;;;6283724;22;20175;-94
2022/04/12 13:00:51;;;;;;;6.53;1.80;;;3.50;99.90;;;;;;6284139;22;20174;-95
2022/04/12 13:03:25;;;;;;;11.07;1.90;;;3.50;99.90;;;;;;6257563;22;20178;-92
2022/04/12 13:05:59;;;;;;;6.07;1.50;;;3.50;99.90;;;;;;6283773;22;20162;-92
2022/04/12 13:08:34;;;;;;;8.60;1.57;;;3.50;99.90;;;;;;6284348;22;20240;-93
2022/04/12 13:11:05;;;;;;;6.07;1.83;;;3.50;99.90;;;;;;6284067;22;20174;-91
2022/04/12 13:13:37;;;;;;;9.47;2.27;;;3.50;99.90;;;;;;6283663;22;20517;-95
2022/04/12 13:16:11;;;;;;;6.57;1.70;;;3.40;99.90;;;;;;6283618;22;20178;-92
2022/04/12 13:18:44;;;;;;;7.13;1.23;;;3.40;99.90;;;;;;6284149;22;20249;-92
2022/04/12 13:21:18;;;;;;;5.03;1.20;;;3.40;99.90;;;;;;6286903;22;20253;-92
2022/04/12 13:23:50;;;;;;;11.97;2.10;;;3.40;99.90;;;;;;6293453;22;20175;-92
2022/04/12 13:26:22;;;;;;;7.03;1.50;;;3.40;99.90;;;;;;6278442;22;20170;-93
2022/04/12 13:28:53;;;;;;;7.27;1.77;;;3.40;99.90;;;;;;6299367;22;20599;-92
2022/04/12 13:31:29;;;;;;;7.70;1.60;;;3.40;99.90;;;;;;6284557;22;20174;-92
2022/04/12 13:34:02;;;;;;;12.03;1.60;;;3.40;99.90;;;;;;6288455;22;20163;-92
2022/04/12 13:36:34;;;;;;;7.97;2.70;;;3.40;99.90;;;;;;6289866;22;20622;-93
2022/04/12 13:39:08;;;;;;;4.30;1.50;;;3.40;99.90;;;;;;6287152;22;20179;-94
2022/04/12 13:41:39;;;;;;;4.30;1.60;;;3.40;99.90;;;;;;6284811;22;20500;-92
2022/04/12 13:44:15;;;;;;;7.80;1.50;;;3.30;99.90;;;;;;6287123;22;20201;-93
2022/04/12 13:47:06;;;;;;;6.23;2.00;;;3.30;99.90;;;;;;6286135;22;20171;-93
2022/04/12 13:49:39;;;;;;;5.43;2.00;;;3.40;99.90;;;;;;6286667;22;20159;-92
2022/04/12 13:52:11;;;;;;;7.87;1.47;;;3.30;99.90;;;;;;6293450;22;20175;-91
2022/04/12 13:54:46;;;;;;;7.30;1.90;;;3.30;99.90;;;;;;6286692;22;20171;-93
2022/04/12 13:57:18;;;;;;;4.10;1.33;;;3.30;99.90;;;;;;6285860;22;20175;-92
2022/04/12 13:59:50;;;;;;;4.83;1.70;;;3.30;99.90;;;;;;6287788;22;20253;-92
2022/04/12 14:02:24;;;;;;;4.37;1.43;;;3.30;99.90;;;;;;6287784;22;20226;-93
2022/04/12 14:04:56;;;;;;;7.00;5.27;;;3.30;99.90;;;;;;6285756;22;20170;-92
2022/04/12 14:07:27;;;;;;;5.70;1.67;;;3.40;99.90;;;;;;6283952;22;20175;-93
2022/04/12 14:09:59;;;;;;;5.73;2.70;;;3.40;99.90;;;;;;6284124;22;20231;-93
2022/04/12 14:15:23;;;;;;;6.03;3.33;;;3.40;99.90;;;;;;6287637;22;20175;-93
2022/04/12 14:17:57;;;;;;;2.30;1.10;;;3.40;99.90;;;;;;6294823;22;20222;-92
2022/04/12 14:20:43;;;;;;;2.20;1.23;;;3.40;99.90;;;;;;6299491;22;20167;-93
2022/04/12 14:23:15;;;;;;;2.33;1.53;;;3.40;99.90;;;;;;6259391;22;20208;-92
2022/04/12 14:25:50;;;;;;;5.70;2.77;;;3.30;99.90;;;;;;6285957;22;20171;-92
2022/04/12 14:28:22;;;;;;;2.97;0.80;;;3.40;99.90;;;;;;6284525;22;20506;-92
2022/04/12 14:34:01;;;;;;;3.00;1.20;;;3.40;99.90;;;;;;6288898;22;20232;-92
2022/04/12 14:36:34;;;;;;;4.10;3.17;;;3.40;99.90;;;;;;6296300;22;20190;-93
2022/04/12 14:41:53;;;;;;;2.57;1.23;;;3.40;99.90;;;;;;6265528;22;20183;-92
2022/04/12 14:47:26;;;;;;;3.57;1.00;;;3.40;99.90;;;;;;6273020;22;20163;-91
2022/04/12 14:50:03;;;;;;;0.70;0.70;;;3.40;99.90;;;;;;6297687;22;20167;-92
2022/04/12 14:55:40;;;;;;;4.13;0.93;;;3.50;99.90;;;;;;6298125;22;20170;-94
2022/04/12 14:58:22;;;;;;;3.90;1.67;;;3.60;99.90;;;;;;6300763;22;20218;-92
2022/04/12 15:01:01;;;;;;;4.37;2.97;;;3.60;99.90;;;;;;6301020;22;20236;-93
2022/04/12 15:03:35;;;;;;;1.97;1.00;;;3.60;99.90;;;;;;6300530;22;20268;-93
2022/04/12 15:06:19;;;;;;;3.00;1.10;;;3.60;99.90;;;;;;6300265;22;20171;-91
2022/04/12 15:08:51;;;;;;;2.07;0.70;;;3.60;99.90;;;;;;6302185;22;20183;-94
2022/04/12 15:11:26;;;;;;;3.17;0.90;;;3.70;99.90;;;;;;6295949;22;20175;-94
2022/04/12 15:13:58;;;;;;;1.97;1.00;;;3.80;99.90;;;;;;6292211;22;20177;-93
2022/04/12 15:16:34;;;;;;;2.50;0.90;;;3.80;99.90;;;;;;6323839;22;20200;-94
2022/04/12 15:19:06;;;;;;;1.97;1.00;;;3.90;99.90;;;;;;6364313;22;20181;-91
2022/04/12 15:21:41;;;;;;;3.97;0.87;;;4.00;99.90;;;;;;6365834;22;20203;-92
2022/04/12 15:24:13;;;;;;;1.37;0.97;;;4.20;99.90;;;;;;6365858;22;20212;-92